Latest Coastal Weather Observations for Neptune Island

IDS60701

Issued at 3:41 am CDT Sunday 2 October 2016 (issued every 10 minutes, with the page automatically refreshed every 10 minutes)

About coastal observations | Map of coastal stations | Coastal observations for SA | Marine services | Other Formats
Station Details ID: 018115 Name: NEPTUNE ISLAND Lat: -35.34 Lon: 136.12 Height: 32.0 m
Data from the previous 72 hours. | See also: Recent months at Neptune Island
Date/Time
CDT
Temp
°C
Wind Pressure Rain since
9am
mm
Weather Cloud Vis
km
Sea
Height
m
Swell
Dir  Spd
kts
Gust
kts
hPa Trend Height
m
Period
s
Dir
02/03:30am - W 9 13 994.9 - 0.0 - - - - - - -
02/03:00am - N 11 15 994.6 - 0.0 - - - - - - -
02/01:30am - NNE 12 18 993.3 - 0.0 - - - - - - -
02/01:00am - NW 9 11 993.8 - 0.0 - - - - - - -
02/12:30am - N 14 17 994.5 - 0.0 - - - - - - -
02/12:00am - N 16 18 994.8 - 0.0 - - - - - - -
 
Date/Time
CDT
Temp
°C
Wind Pressure Rain since
9am
mm
Weather Cloud Vis
km
Sea
Height
m
Swell
Dir  Spd
kts
Gust
kts
hPa Trend Height
m
Period
s
Dir
01/11:30pm - N 11 12 995.1 - 0.0 - - - - - - -
01/11:00pm - N 7 10 995.5 - 0.0 - - - - - - -
01/10:30pm - WNW 13 16 995.7 - 0.0 - - - - - - -
01/10:00pm - NW 20 24 996.1 - 0.0 - - - - - - -
01/09:41pm - NNW 20 24 996.0 - 0.0 - - - - - - -
01/09:30pm - N 20 23 996.1 - 0.0 - - - - - - -
01/09:00pm - NNE 20 25 995.4 - 0.0 - - - - - - -
01/08:30pm - NE 19 25 994.8 - 0.0 - - - - - - -
01/08:00pm - NE 21 27 994.4 - 0.0 - - - - - - -
01/07:30pm - NE 21 27 994.7 - 0.0 - - - - - - -
01/07:00pm - NE 20 27 994.9 - 0.0 - - - - - - -
01/06:41pm - NE 22 32 995.2 - 0.0 - - - - - - -
01/06:30pm - NE 24 31 995.3 - 0.0 - - - - - - -
01/06:00pm - NE 24 30 996.1 - 0.0 - - - - - - -
01/05:30pm - NE 24 31 996.4 - 0.0 - - - - - - -
01/05:00pm - NE 27 32 996.7 - 0.0 - - - - - - -
01/04:30pm - NE 24 28 997.2 - 0.0 - - - - - - -
01/04:00pm - NE 22 26 997.7 - 0.0 - - - - - - -
01/03:30pm - NE 22 27 998.2 - 0.0 - - - - - - -
01/03:00pm - NE 17 23 999.1 - 0.0 - - - - - - -
01/02:30pm - NE 17 24 999.9 - 0.0 - - - - - - -
01/02:00pm - NE 17 24 1000.6 - 0.0 - - - - - - -
01/01:30pm - NE 16 24 1001.2 - 0.0 - - - - - - -
01/01:00pm - NE 18 23 1001.9 - 0.0 - - - - - - -
01/12:30pm - NNE 20 23 1002.7 - 0.0 - - - - - - -
01/12:00pm - NNE 19 21 1003.4 - 0.0 - - - - - - -
01/11:30am - NNE 18 21 1003.9 - 0.0 - - - - - - -
01/11:00am - NNE 19 22 1004.4 - 0.0 - - - - - - -
01/10:30am - N 18 20 1004.8 - 0.0 - - - - - - -
01/10:00am - N 19 22 1005.1 - 0.0 - - - - - - -
01/09:30am - N 18 21 1005.7 - 0.0 - - - - - - -
01/09:00am - N 18 21 1005.5 - 0.2 - - - - - - -
01/08:30am - N 17 21 1005.7 - 0.2 - - - - - - -
01/08:00am - N 15 18 1005.5 - 0.2 - - - - - - -
01/07:30am - N 15 18 1005.4 - 0.2 - - - - - - -
01/07:00am - N 13 16 1005.4 - 0.2 - - - - - - -
01/06:30am - N 12 15 1005.5 - 0.2 - - - - - - -
01/06:00am - NNW 12 15 1005.3 - 0.2 - - - - - - -
01/05:30am - NNW 10 13 1005.0 - 0.2 - - - - - - -
01/05:00am - NW 11 15 1005.3 - 0.2 - - - - - - -
01/04:30am - NW 11 13 1005.2 - 0.2 - - - - - - -
01/04:00am - WNW 7 12 1005.3 - 0.2 - - - - - - -
01/03:30am - W 10 15 1005.7 - 0.2 - - - - - - -
01/03:00am - W 16 22 1006.0 - 0.2 - - - - - - -
01/02:30am - W 14 19 1006.4 - 0.2 - - - - - - -
01/02:00am - WNW 17 22 1006.5 - 0.2 - - - - - - -
01/01:30am - W 14 19 1006.6 - 0.2 - - - - - - -
01/01:00am - W 14 19 1006.7 - 0.2 - - - - - - -
01/12:30am - WNW 15 19 1006.8 - 0.2 - - - - - - -
01/12:00am - WSW 16 21 1006.8 - 0.2 - - - - - - -
 
Date/Time
CDT
Temp
°C
Wind Pressure Rain since
9am
mm
Weather Cloud Vis
km
Sea
Height
m
Swell
Dir  Spd
kts
Gust
kts
hPa Trend Height
m
Period
s
Dir
30/11:30pm - W 20 23 1007.1 - 0.2 - - - - - - -
30/11:00pm - WSW 19 22 1007.2 - 0.2 - - - - - - -
30/10:30pm - WSW 17 20 1007.1 - 0.2 - - - - - - -
30/10:00pm - WSW 19 22 1007.3 - 0.2 - - - - - - -
30/09:30pm - WSW 17 20 1007.2 - 0.2 - - - - - - -
30/09:00pm - WSW 19 23 1007.0 - 0.2 - - - - - - -
30/08:30pm - WSW 17 21 1007.1 - 0.2 - - - - - - -
30/08:00pm - W 17 20 1007.2 - 0.2 - - - - - - -
30/07:30pm - WSW 14 18 1006.8 - 0.2 - - - - - - -
30/07:00pm - W 18 23 1006.7 - 0.2 - - - - - - -
30/06:30pm - WSW 16 19 1006.4 - 0.2 - - - - - - -
30/06:00pm - WSW 18 20 1006.3 - 0.2 - - - - - - -
30/05:30pm - WSW 18 22 1006.1 - 0.2 - - - - - - -
30/05:00pm - SW 20 24 1006.2 - 0.2 - - - - - - -
30/04:30pm - SW 20 23 1006.2 - 0.0 - - - - - - -
30/04:00pm - SW 21 25 1006.3 - 0.0 - - - - - - -
30/03:30pm - WSW 22 25 1005.8 - 0.0 - - - - - - -
30/03:00pm - SW 24 28 1006.0 - 0.0 - - - - - - -
30/02:30pm - SW 23 27 1005.9 - 0.0 - - - - - - -
30/02:00pm - SW 23 27 1005.9 - 0.0 - - - - - - -
30/01:30pm - SW 23 27 1006.1 - 0.0 - - - - - - -
30/01:00pm - SW 24 29 1006.0 - 0.0 - - - - - - -
30/12:30pm - SW 25 29 1006.2 - 0.0 - - - - - - -
30/12:00pm - SW 25 29 1006.2 - 0.0 - - - - - - -
30/11:30am - SW 25 30 1006.2 - 0.0 - - - - - - -
30/11:00am - SW 27 31 1006.0 - 0.0 - - - - - - -
30/10:30am - SW 26 31 1005.9 - 0.0 - - - - - - -
30/10:00am - SW 27 32 1005.8 - 0.0 - - - - - - -
30/09:40am - SW 29 39 1005.9 - 0.0 - - - - - - -
30/09:30am - SW 29 38 1005.7 - 0.0 - - - - - - -
30/09:00am - SW 29 36 1005.3 - 9.8 - - - - - - -
30/08:30am - SW 31 39 1004.9 - 9.8 - - - - - - -
30/08:00am - SW 33 43 1004.3 - 9.8 - - - - - - -
30/07:52am - SW 30 43 1003.8 - 9.8 - - - - - - -
30/07:30am - SW 29 34 1003.9 - 9.8 - - - - - - -
30/07:00am - SW 31 38 1003.4 - 9.6 - - - - - - -
30/06:30am - SW 27 35 1003.0 - 9.6 - - - - - - -
30/06:17am - SW 30 40 1002.8 - 9.6 - - - - - - -
30/06:00am - SW 29 34 1002.4 - 9.4 - - - - - - -
30/05:30am - SW 31 37 1002.0 - 9.4 - - - - - - -
30/05:09am - SW 31 41 1001.7 - 9.4 - - - - - - -
30/05:00am - SW 32 37 1001.4 - 9.4 - - - - - - -
30/04:30am - SW 30 40 1001.0 - 9.2 - - - - - - -
30/04:27am - SW 30 40 1000.7 - 9.2 - - - - - - -
30/04:00am - SW 30 35 1000.6 - 9.2 - - - - - - -
30/03:30am - SW 31 38 1000.4 - 9.2 - - - - - - -
30/03:00am - SW 31 37 1000.1 - 9.0 Recent precip. - - - - - -
30/02:30am - SW 32 40 999.9 - 9.0 - - - - - - -
30/02:11am - SW 33 43 999.7 - 9.0 - - - - - - -
30/02:00am - SW 35 41 999.6 - 8.8 - - - - - - -
30/01:30am - SW 37 46 999.1 - 8.8 - - - - - - -
30/01:00am - SW 37 47 999.0 - 8.8 - - - - - - -
30/12:47am - SW 37 49 998.9 - 8.8 - - - - - - -
30/12:30am - SW 38 46 999.0 - 8.8 - - - - - - -
30/12:00am - SW 38 47 998.7 - 8.8 Recent precip. - - - - - -
 
Date/Time
CDT
Temp
°C
Wind Pressure Rain since
9am
mm
Weather Cloud Vis
km
Sea
Height
m
Swell
Dir  Spd
kts
Gust
kts
hPa Trend Height
m
Period
s
Dir
29/11:33pm - SW 40 50 998.5 - 8.6 - - - - - - -
29/11:30pm - SW 41 50 998.6 - 8.6 - - - - - - -
29/11:01pm - SW 37 47 998.3 - 8.4 - - - - - - -
29/11:00pm - SW 38 47 998.4 - 8.4 - - - - - - -
29/10:30pm - SW 42 52 998.1 - 8.2 - - - - - - -
29/10:00pm - SW 42 52 997.9 - 8.2 - - - - - - -
29/09:30pm - SW 43 53 998.0 - 8.0 - - - - - - -
29/09:00pm - SW 43 55 997.7 - 7.8 - - - - - - -
29/08:30pm - WSW 40 54 997.2 - 7.8 - - - - - - -
29/08:10pm - SW 41 51 997.5 - 7.8 - - - - - - -
29/08:00pm - SW 42 51 997.1 - 7.8 - - - - - - -
29/07:30pm - SW 43 53 996.6 - 7.8 - - - - - - -
29/07:00pm - SW 43 53 996.1 - 7.8 - - - - - - -
29/06:39pm - SW 43 53 995.9 - 7.6 - - - - - - -
29/06:30pm - SW 43 50 995.5 - 7.6 - - - - - - -
29/06:00pm - SW 46 57 995.4 - 7.6 Rain - - - - - -
29/05:33pm - SW 44 55 994.9 - 7.4 - - - - - - -
29/05:30pm - SW 43 52 994.7 - 7.4 - - - - - - -
29/05:00pm - WSW 42 52 994.3 - 7.4 - - - - - - -
29/04:30pm - SW 44 55 993.8 - 7.4 - - - - - - -
29/04:05pm - SW 45 56 992.8 - 7.4 - - - - - - -
29/04:00pm - SW 44 53 993.0 - 7.4 - - - - - - -
29/03:30pm - SW 45 57 991.9 - 7.2 - - - - - - -
29/03:00pm - SW 45 57 991.4 - 7.2 Recent precip. - - - - - -
29/02:31pm - SW 46 56 990.8 - 7.0 - - - - - - -
29/02:30pm - SW 45 54 990.8 - 7.0 - - - - - - -
29/02:00pm - SW 45 56 990.4 - 7.0 - - - - - - -
29/01:30pm - SW 46 60 989.8 - 6.8 - - - - - - -
29/01:00pm - SW 48 59 988.6 - 6.6 - - - - - - -
29/12:30pm - WSW 51 65 987.5 - 6.4 - - - - - - -
29/12:00pm - WSW 48 60 988.0 - 5.4 Rain - - - - - -
29/11:30am - WSW 45 57 987.0 - 4.4 - - - - - - -
29/11:00am - SW 44 57 986.8 - 3.6 - - - - - - -
29/10:30am - WSW 45 55 986.2 - 3.0 - - - - - - -
29/10:00am - WSW 46 56 985.7 - 2.8 - - - - - - -
29/09:32am - SW 45 56 985.1 - 2.0 - - - - - - -
29/09:30am - SW 43 56 984.6 - 2.0 - - - - - - -
29/09:29am - SW 42 56 984.5 - 2.0 - - - - - - -
29/09:23am - SW 35 49 984.9 - 1.6 - - - - - - -
29/09:21am - SW 32 44 985.3 - 1.6 - - - - - - -
29/09:08am - WSW 28 35 985.4 - 0.8 - - - - - - -
29/09:00am - WSW 33 40 985.4 - 9.6 Rain - - - - - -
29/08:32am - WSW 34 44 985.2 - 9.0 - - - - - - -
29/08:30am - WSW 35 44 985.4 - 9.0 - - - - - - -
29/08:00am - WSW 33 38 984.8 - 8.8 - - - - - - -
29/07:30am - SW 38 47 984.0 - 8.8 - - - - - - -
29/07:00am - SW 38 49 982.8 - 8.8 - - - - - - -
29/06:30am - SW 42 53 981.4 - 8.4 - - - - - - -
29/06:01am - SW 44 54 980.3 - 8.4 - - - - - - -
29/06:00am - SW 45 54 980.1 - 8.4 Recent precip. - - - - - -
29/05:33am - SW 44 54 978.7 - 8.4 - - - - - - -
29/05:30am - SW 46 55 978.4 - 8.4 - - - - - - -
29/05:00am - SW 41 51 976.8 - 8.2 - - - - - - -
29/04:46am - SW 37 47 976.2 - 8.2 - - - - - - -
29/04:30am - SW 39 47 975.5 - 8.2 - - - - - - -
29/04:00am - SW 38 50 973.7 - 8.0 - - - - - - -
29/03:42am - WSW 33 44 973.2 - 8.0 - - - - - - -
29/03:30am - WSW 30 34 973.3 - 7.8 - - - - - - -
29/03:07am - W 26 39 972.3 - 7.6 - - - - - - -
29/03:05am - W 24 37 972.6 - 7.6 - - - - - - -
29/03:00am - WNW 25 31 972.7 - 7.6 Recent precip. - - - - - -
29/02:57am - WNW 26 31 972.8 - 7.6 - - - - - - -

Other Formats:

Comma delimited format used in spreadsheet applications
http://www.bom.gov.au/fwo/IDS60701/IDS60701.94804.axf

JavaScript Object Notation format (JSON) in row-major order
http://www.bom.gov.au/fwo/IDS60701/IDS60701.94804.json